Latest Weather Observations for Rolleston Airport

IDQ60801

Issued at 1:05 pm EST Friday 18 April 2014 (issued every 30 minutes, with the page automatically refreshed every 10 minutes)

About weather observations | Map of weather stations | Latest weather observations for QLD | Other Formats
Station Details ID: 035129 Name: ROLLESTON AIRPORT Lat: -24.46 Lon: 148.63 Height: 219.45 m
Data from the previous 72 hours. | See also: Recent months at Rolleston Airport
Date/Time
EST
Temp
°C
App
Temp
°C
Dew
Point
Rel
Hum
%
Delta-T
°C
Wind Press
QNH
hPa
Press
MSL
hPa
Rain
since 9 am
mm
Dir
 
Spd
km/h
Gust
km/h
Spd
kts
Gust
kts
18/01:00pm 28.2 26.3 9.0 30 10.7 WNW 9 17 5 9 1015.8 1014.9 0.0
18/12:30pm 27.6 25.7 9.0 31 10.3 S 9 24 5 13 1016.1 - 0.0
18/12:00pm 26.9 24.3 7.9 30 10.3 SE 11 20 6 11 1016.8 1015.8 0.0
18/11:30am 26.6 24.7 7.6 30 10.2 S 7 22 4 12 1017.3 - 0.0
18/11:00am 26.5 24.2 8.9 33 9.7 SSE 11 17 6 9 1017.8 1016.8 0.0
18/10:30am 26.1 24.4 9.9 36 9.1 SSE 9 17 5 9 1018.3 - 0.0
18/10:00am 24.7 22.5 9.4 38 8.4 SSE 11 15 6 8 1018.6 1017.6 0.0
18/09:30am 23.8 22.4 10.8 44 7.3 S 9 15 5 8 1018.9 - 0.0
18/09:00am 22.1 20.2 10.6 48 6.4 S 11 19 6 10 1019.1 1018.2 0.0
18/08:30am 20.4 19.6 11.6 57 4.9 S 7 11 4 6 1019.0 - 0.0
18/08:00am 17.7 16.5 11.5 67 3.4 SSE 9 11 5 6 1018.7 1017.8 0.0
18/07:30am 15.8 14.9 11.4 75 2.4 SSE 7 9 4 5 1018.7 - 0.0
18/07:00am 13.9 13.5 11.2 84 1.4 S 4 6 2 3 1018.5 1017.5 0.0
18/06:30am 12.8 12.0 10.9 88 1.0 SSE 6 7 3 4 1018.2 - 0.0
18/06:00am 12.5 11.6 10.7 89 0.9 S 6 6 3 3 1018.1 1017.1 0.0
18/05:30am 13.4 12.7 11.3 87 1.1 S 6 7 3 4 1017.9 - 0.0
18/05:00am 13.3 13.0 11.5 89 1.0 SSW 4 6 2 3 1017.9 1016.9 0.0
18/04:30am 13.8 13.5 11.3 85 1.3 SSW 4 6 2 3 1017.8 - 0.0
18/04:00am 14.3 14.8 11.6 84 1.5 CALM 0 2 0 1 1017.9 1016.9 0.0
18/03:30am 14.8 15.4 11.8 82 1.6 CALM 0 2 0 1 1017.8 - 0.0
18/03:00am 15.0 15.2 12.0 82 1.6 N 2 4 1 2 1017.8 1016.8 0.0
18/02:30am 14.4 14.6 11.9 85 1.4 N 2 4 1 2 1017.9 - 0.0
18/02:00am 15.9 15.4 11.9 77 2.2 SSE 6 6 3 3 1017.8 1016.8 0.0
18/01:30am 15.6 14.9 11.4 76 2.3 S 6 6 3 3 1017.9 - 0.0
18/01:00am 16.4 15.8 11.6 73 2.6 S 6 7 3 4 1017.9 1016.9 0.0
18/12:30am 17.4 16.7 12.1 71 2.9 SSE 7 7 4 4 1017.9 - 0.0
18/12:00am 17.3 16.6 12.0 71 2.9 SSE 7 7 4 4 1018.1 1017.1 0.0
 
Date/Time
EST
Temp
°C
App
Temp
°C
Dew
Point
Rel
Hum
%
Delta-T
°C
Wind Press
QNH
hPa
Press
MSL
hPa
Rain
since 9 am
mm
Dir
 
Spd
km/h
Gust
km/h
Spd
kts
Gust
kts
17/11:30pm 17.1 16.5 12.2 73 2.7 SSE 7 7 4 4 1018.1 - 0.0
17/11:00pm 18.2 17.8 12.4 69 3.2 SSE 6 6 3 3 1018.2 1017.2 0.0
17/10:30pm 18.1 17.6 12.1 68 3.3 SSE 6 7 3 4 1018.1 - 0.0
17/10:00pm 19.4 18.7 11.4 60 4.4 S 6 9 3 5 1017.9 1016.9 0.0
17/09:30pm 21.2 20.1 11.8 55 5.3 SSE 9 17 5 9 1017.8 - 0.0
17/09:00pm 20.7 19.2 11.9 57 5.0 SE 11 13 6 7 1017.5 1016.5 0.0
17/08:30pm 21.3 20.0 12.4 57 5.1 SE 11 15 6 8 1017.2 - 0.0
17/08:00pm 22.2 21.7 12.5 54 5.6 SE 7 7 4 4 1016.8 1015.8 0.0
17/07:30pm 22.5 22.1 13.0 55 5.5 SE 7 9 4 5 1016.4 - 0.0
17/07:00pm 22.5 21.7 13.0 55 5.5 SE 9 9 5 5 1016.0 1015.1 0.0
17/06:30pm 23.0 22.7 13.2 54 5.7 SE 7 9 4 5 1015.5 - 0.0
17/06:00pm 25.4 25.4 12.3 44 7.6 SSE 4 4 2 2 1015.2 1014.3 0.0
17/05:30pm 27.9 27.1 11.0 35 9.7 SSW 6 9 3 5 1015.0 - 0.0
17/05:00pm 29.0 28.1 10.6 32 10.5 S 6 11 3 6 1014.7 1013.8 0.0
17/04:30pm 29.3 28.4 11.4 33 10.4 SW 7 15 4 8 1014.5 - 0.0
17/04:00pm 29.6 28.8 11.6 33 10.5 SW 7 13 4 7 1014.5 1013.5 0.0
17/03:30pm 29.5 28.4 12.0 34 10.3 SSW 9 15 5 8 1014.4 - 0.0
17/03:00pm 29.2 28.4 11.7 34 10.2 SSW 7 15 4 8 1014.5 1013.5 0.0
17/02:30pm 29.2 28.6 12.2 35 10.0 SSW 7 15 4 8 1014.8 - 0.0
17/02:00pm 28.8 27.7 11.8 35 9.9 WSW 9 19 5 10 1015.1 1014.2 0.0
17/01:30pm 28.6 29.1 12.9 38 9.3 SSE 2 7 1 4 1015.6 - 0.0
17/01:00pm 27.9 29.0 14.5 44 8.1 NE 2 6 1 3 1016.2 1015.3 0.0
17/12:30pm 27.3 28.2 15.0 47 7.5 N 4 11 2 6 1016.8 - 0.0
17/12:00pm 27.4 27.7 14.4 45 7.9 NNE 6 9 3 5 1017.3 1016.3 0.0
17/11:30am 27.0 28.0 15.4 49 7.1 W 4 11 2 6 1017.9 - 0.0
17/11:00am 26.7 27.3 15.4 50 6.9 NNW 6 13 3 7 1018.4 1017.4 0.0
17/10:30am 25.7 27.1 15.4 53 6.3 W 2 6 1 3 1018.7 - 0.0
17/10:00am 25.0 26.1 15.6 56 5.7 W 4 7 2 4 1018.8 1017.9 0.0
17/09:30am 23.6 24.4 14.9 58 5.2 SSW 4 7 2 4 1019.0 - 0.0
17/09:00am 22.8 23.3 15.1 62 4.6 SSE 6 9 3 5 1018.9 1018.0 0.0
17/08:30am 21.4 21.9 15.5 69 3.5 SE 7 11 4 6 1018.8 - 0.0
17/08:00am 19.5 20.2 15.6 78 2.3 S 6 9 3 5 1018.7 1017.8 0.0
17/07:30am 18.0 19.0 15.4 85 1.5 S 4 6 2 3 1018.4 - 0.0
17/07:00am 16.7 17.7 15.4 92 0.8 SW 4 4 2 2 1018.1 1017.1 0.0
17/06:30am 16.3 18.0 15.2 93 0.6 CALM 0 2 0 1 1017.8 - 0.0
17/06:00am 16.1 17.7 14.8 92 0.8 CALM 0 0 0 0 1017.6 1016.6 0.0
17/05:30am 16.6 18.3 15.3 92 0.8 CALM 0 0 0 0 1017.1 - 0.0
17/05:00am 16.9 18.2 15.1 89 1.1 SW 2 4 1 2 1016.8 1015.8 0.0
17/04:30am 17.4 18.3 15.2 87 1.3 S 4 6 2 3 1016.4 - 0.0
17/04:00am 18.1 19.0 15.2 83 1.7 S 4 4 2 2 1016.4 1015.5 0.0
17/03:30am 18.7 19.2 15.6 82 1.8 SE 7 9 4 5 1016.2 - 0.0
17/03:00am 18.4 19.5 15.5 83 1.7 ENE 4 7 2 4 1016.1 1015.2 0.0
17/02:30am 19.0 21.0 16.0 83 1.8 CALM 0 4 0 2 1016.2 - 0.0
17/02:00am 19.1 20.2 15.6 80 2.1 S 4 6 2 3 1016.0 1015.1 0.0
17/01:30am 19.6 21.0 16.4 82 1.9 S 4 4 2 2 1016.2 - 0.0
17/01:00am 20.0 21.1 15.6 76 2.6 S 4 4 2 2 1016.5 1015.6 0.0
17/12:30am 20.6 21.3 15.6 73 3.0 SE 6 7 3 4 1016.5 - 0.0
17/12:00am 21.2 22.8 16.0 72 3.1 S 2 4 1 2 1016.8 1015.8 0.0
 
Date/Time
EST
Temp
°C
App
Temp
°C
Dew
Point
Rel
Hum
%
Delta-T
°C
Wind Press
QNH
hPa
Press
MSL
hPa
Rain
since 9 am
mm
Dir
 
Spd
km/h
Gust
km/h
Spd
kts
Gust
kts
16/11:30pm 21.2 22.4 16.0 72 3.2 ESE 4 6 2 3 1016.7 - 0.0
16/11:00pm 21.7 23.6 16.6 73 3.1 ESE 2 4 1 2 1016.8 1015.8 0.0
16/10:30pm 22.5 23.8 16.1 67 3.9 S 4 4 2 2 1016.7 - 0.0
16/10:00pm 22.1 22.7 15.7 67 3.9 SW 7 11 4 6 1016.7 1015.7 0.0
16/09:30pm 21.6 22.0 15.4 68 3.7 S 7 9 4 5 1016.1 - 0.0
16/09:00pm 22.7 22.9 15.8 65 4.2 E 9 13 5 7 1015.7 1014.8 0.0
16/08:30pm 21.7 21.7 15.3 67 3.8 SE 9 13 5 7 1015.7 - 0.0
16/08:00pm 21.5 21.4 14.9 66 3.9 SE 9 11 5 6 1015.2 1014.3 0.0
16/07:30pm 22.9 23.2 14.5 59 5.0 SSE 6 7 3 4 1014.7 - 0.0
16/07:00pm 23.9 23.2 14.3 55 5.7 SE 11 15 6 8 1014.4 1013.4 0.0
16/06:30pm 25.5 26.1 15.8 55 6.0 ESE 7 9 4 5 1014.1 - 0.0
16/06:00pm 25.9 26.8 16.2 55 6.0 SSE 6 6 3 3 1013.8 1012.8 0.0
16/05:30pm 27.0 28.2 16.0 51 6.8 SSE 4 4 2 2 1013.5 - 0.0
16/05:00pm 28.0 28.6 14.3 43 8.3 S 4 7 2 4 1013.3 1012.3 0.0
16/04:30pm 28.7 28.6 13.8 40 9.0 SW 7 11 4 6 1013.3 - 0.0
16/04:00pm 28.7 28.6 13.4 39 9.2 WSW 6 7 3 4 1013.2 1012.2 0.0
16/03:30pm 29.3 28.8 12.7 36 9.9 W 7 13 4 7 1013.3 - 0.0
16/03:00pm 28.9 29.1 14.3 40 8.9 W 6 11 3 6 1013.2 1012.2 0.0
16/02:30pm 29.6 30.3 15.7 43 8.7 NW 6 20 3 11 1013.5 - 0.0
16/02:00pm 28.2 28.8 15.8 47 7.7 SW 7 13 4 7 1013.8 1012.8 0.0
16/01:30pm 28.4 29.2 16.3 47 7.6 W 7 17 4 9 1014.3 - 0.0
16/01:00pm 27.9 28.6 16.2 49 7.3 NW 7 15 4 8 1014.6 1013.6 0.0
16/12:30pm 28.1 28.8 17.9 54 6.5 NW 11 22 6 12 1015.0 - 0.0
16/12:00pm 26.5 27.4 17.6 58 5.6 WNW 9 17 5 9 1015.6 1014.7 0.0
16/11:30am 26.0 27.3 17.6 60 5.3 NW 7 13 4 7 1016.4 - 0.0
16/11:00am 26.2 26.0 16.7 56 5.9 NNW 13 19 7 10 1016.9 1015.9 0.0
16/10:30am 25.1 25.5 17.3 62 4.9 NNW 11 17 6 9 1017.1 - 0.0
16/10:00am 24.8 24.7 17.0 62 4.9 N 13 20 7 11 1017.3 1016.3 0.0
16/09:30am 24.1 25.0 18.3 70 3.7 N 11 17 6 9 1017.5 - 0.0
16/09:00am 23.3 23.8 17.5 70 3.6 NNW 11 19 6 10 1017.6 1016.6 0.4
16/08:30am 22.3 24.2 17.7 75 2.9 NNW 4 7 2 4 1017.6 - 0.4
16/08:00am 20.8 23.7 18.2 85 1.6 CALM 0 2 0 1 1017.3 1016.3 0.4
16/07:30am 19.2 21.6 17.9 92 0.8 NW 2 4 1 2 1017.1 - 0.4
16/07:00am 18.4 21.0 17.6 95 0.5 CALM 0 0 0 0 1016.9 1015.9 0.4
16/06:30am 17.9 20.3 17.1 95 0.5 CALM 0 0 0 0 1016.3 - 0.4
16/06:00am 17.8 20.2 17.0 95 0.5 CALM 0 0 0 0 1015.9 1015.0 0.4
16/05:30am 18.4 20.9 17.2 93 0.7 CALM 0 0 0 0 1015.7 - 0.4
16/05:00am 18.7 21.3 17.5 93 0.7 CALM 0 0 0 0 1015.5 1014.6 0.4
16/04:30am 19.0 21.3 17.8 93 0.7 SW 2 6 1 3 1015.4 - 0.4
16/04:00am 18.8 20.8 17.8 94 0.6 NW 4 6 2 3 1015.1 1014.2 0.4
16/03:30am 19.0 21.5 18.2 95 0.5 NW 2 4 1 2 1014.9 - 0.4
16/03:00am 18.7 20.6 17.7 94 0.6 NNW 4 7 2 4 1014.8 1013.9 0.4
16/02:30am 19.1 22.0 18.1 94 0.6 CALM 0 2 0 1 1014.8 - 0.4
16/02:00am 19.0 20.7 18.0 94 0.6 SSE 6 7 3 4 1015.2 1014.3 0.4
16/01:30am 19.1 20.6 18.1 94 0.6 SSE 7 9 4 5 1015.4 - 0.4
16/01:00am 19.3 21.4 18.0 92 0.8 S 4 6 2 3 1015.7 1014.8 0.4
16/12:30am 19.6 21.7 18.1 91 0.9 SSW 4 6 2 3 1015.7 - 0.4
16/12:00am 19.3 22.0 17.8 91 0.9 CALM 0 4 0 2 1015.8 1014.9 0.4
 
Date/Time
EST
Temp
°C
App
Temp
°C
Dew
Point
Rel
Hum
%
Delta-T
°C
Wind Press
QNH
hPa
Press
MSL
hPa
Rain
since 9 am
mm
Dir
 
Spd
km/h
Gust
km/h
Spd
kts
Gust
kts
15/11:30pm 19.8 21.9 18.1 90 1.1 WSW 4 6 2 3 1015.9 - 0.4
15/11:00pm 20.1 22.6 18.2 89 1.2 WNW 2 4 1 2 1016.1 1015.2 0.4
15/10:30pm 20.5 23.1 18.4 88 1.3 WSW 2 6 1 3 1016.0 - 0.4
15/10:00pm 20.6 23.0 18.7 89 1.2 NNW 4 4 2 2 1015.7 1014.8 0.4
15/09:30pm 20.6 22.8 18.4 87 1.4 NW 4 7 2 4 1015.9 - 0.4
15/09:00pm 21.1 22.1 17.7 81 2.1 W 9 13 5 7 1015.8 1014.9 0.2
15/08:30pm 22.6 24.1 17.7 74 3.1 E 6 9 3 5 1015.3 - 0.2
15/08:00pm 23.0 24.1 16.5 67 4.0 ESE 6 9 3 5 1015.2 1014.3 0.2
15/07:30pm 24.5 24.7 15.7 58 5.4 E 9 13 5 7 1014.4 - 0.0
15/07:00pm 24.5 24.9 15.4 57 5.5 E 7 9 4 5 1014.1 1013.1 0.0
15/06:30pm 24.5 24.8 15.1 55 5.7 E 7 9 4 5 1013.8 - 0.0
15/06:00pm 25.6 25.9 15.0 52 6.4 E 7 9 4 5 1013.6 1012.6 0.0
15/05:30pm 26.7 27.0 15.1 49 7.1 E 7 11 4 6 1013.4 - 0.0
15/05:00pm 27.2 26.7 13.9 44 8.0 E 9 15 5 8 1013.0 1012.0 0.0
15/04:30pm 28.2 27.8 14.1 42 8.5 E 9 19 5 10 1012.9 - 0.0
15/04:00pm 28.3 28.3 14.2 42 8.5 NE 7 13 4 7 1013.0 1012.0 0.0
15/03:30pm 27.4 27.6 14.1 44 8.0 NE 6 11 3 6 1013.0 - 0.0
15/03:00pm 28.2 28.3 14.4 42 8.4 ESE 7 13 4 7 1013.1 1012.1 0.0
15/02:30pm 28.1 28.3 14.7 44 8.2 ESE 7 13 4 7 1013.3 - 0.0
15/02:00pm 27.8 28.0 14.8 45 7.9 ENE 7 13 4 7 1013.6 1012.6 0.0
15/01:30pm 27.1 27.3 14.8 47 7.5 S 7 13 4 7 1013.8 - 0.0

Other Formats:

Comma delimited format used in spreadsheet applications
http://www.bom.gov.au/fwo/IDQ60801/IDQ60801.94396.axf

JavaScript Object Notation format (JSON) in row-major order
http://www.bom.gov.au/fwo/IDQ60801/IDQ60801.94396.json